Time;durP1;ratioP1;P1;durP2;ratioP2;P2;SDS_P1;SDS_P2;PMS_P1;PMS_P2;Temp;Humidity;BMP_temperature;BMP_pressure;BME280_temperature;BME280_humidity;BME280_pressure;Samples;Min_cycle;Max_cycle;Signal;HPM_P1;HPM_P2
2021/11/22 00:02:00;;;;;;;11.82;6.25;;;;;;;5.82;100.00;98583.88;5065164;28;20028;-66
2021/11/22 00:04:25;;;;;;;15.13;7.35;;;;;;;5.80;100.00;98579.53;5065162;28;20264;-66
2021/11/22 00:06:50;;;;;;;12.00;6.68;;;;;;;5.68;100.00;98579.53;5064596;28;20047;-66
2021/11/22 00:09:16;;;;;;;13.40;6.57;;;;;;;5.67;100.00;98583.03;5064465;28;20025;-66
2021/11/22 00:11:41;;;;;;;15.57;7.90;;;;;;;5.68;100.00;98592.59;5064436;28;20055;-66
2021/11/22 00:14:06;;;;;;;12.60;6.45;;;;;;;5.76;100.00;98593.47;5064420;28;20025;-66
2021/11/22 00:16:32;;;;;;;15.35;8.13;;;;;;;5.65;100.00;98584.75;5063724;28;20333;-66
2021/11/22 00:18:57;;;;;;;14.95;7.55;;;;;;;5.70;100.00;98583.03;5064466;28;20321;-66
2021/11/22 00:21:23;;;;;;;17.83;8.75;;;;;;;5.68;100.00;98584.75;5064028;28;20036;-66
2021/11/22 00:23:49;;;;;;;15.77;8.82;;;;;;;5.63;100.00;98591.72;5064643;28;20020;-66
2021/11/22 00:26:14;;;;;;;17.75;8.68;;;;;;;5.79;100.00;98594.31;5064235;28;20052;-66
2021/11/22 00:28:40;;;;;;;17.42;8.38;;;;;;;5.89;100.00;98597.81;5064309;28;20395;-66
2021/11/22 00:31:05;;;;;;;15.55;8.63;;;;;;;5.86;100.00;98593.47;5064334;28;20331;-66
2021/11/22 00:33:31;;;;;;;17.02;8.27;;;;;;;5.86;100.00;98595.22;5064053;28;20315;-66
2021/11/22 00:35:56;;;;;;;17.75;9.27;;;;;;;5.85;100.00;98593.47;5064115;28;20340;-66
2021/11/22 00:38:22;;;;;;;16.50;9.07;;;;;;;5.91;100.00;98593.44;5063971;28;20100;-66
2021/11/22 00:40:47;;;;;;;20.17;10.27;;;;;;;5.82;100.00;98598.72;5064070;28;20021;-66
2021/11/22 00:43:13;;;;;;;17.27;9.35;;;;;;;5.89;100.00;98601.28;5063770;28;20028;-66
2021/11/22 00:45:39;;;;;;;16.55;8.55;;;;;;;5.96;100.00;98602.16;5063870;28;20032;-66
2021/11/22 00:48:06;;;;;;;13.43;6.93;;;;;;;5.98;100.00;98600.44;5063391;28;20075;-66
2021/11/22 00:50:35;;;;;;;10.57;6.38;;;;;;;5.96;100.00;98602.16;5059847;28;20024;-66
2021/11/22 00:53:01;;;;;;;13.95;7.63;;;;;;;5.97;100.00;98603.91;5063258;28;20202;-66
2021/11/22 00:55:27;;;;;;;13.85;7.10;;;;;;;6.04;100.00;98611.72;5063626;28;20501;-66
2021/11/22 00:57:52;;;;;;;14.43;8.07;;;;;;;6.05;100.00;98605.59;5063203;28;20021;-66
2021/11/22 01:00:19;;;;;;;16.45;7.57;;;;;;;6.01;100.00;98611.72;5063531;28;20262;-66
2021/11/22 01:02:45;;;;;;;14.25;8.35;;;;;;;6.05;100.00;98610.00;5061779;28;20362;-66
2021/11/22 01:05:11;;;;;;;14.25;7.55;;;;;;;6.02;100.00;98615.22;5063361;28;20080;-66
2021/11/22 01:07:37;;;;;;;13.35;6.85;;;;;;;6.11;100.00;98617.81;5063221;28;20024;-66
2021/11/22 01:10:04;;;;;;;20.20;7.93;;;;;;;6.13;100.00;98610.81;5062891;28;20072;-66
2021/11/22 01:12:30;;;;;;;13.68;7.45;;;;;;;6.15;100.00;98624.78;5063435;28;20031;-66
2021/11/22 01:14:58;;;;;;;14.35;7.15;;;;;;;6.16;100.00;98631.72;5062734;28;20072;-66
2021/11/22 01:17:23;;;;;;;14.82;7.22;;;;;;;6.21;100.00;98627.38;5062941;28;20336;-66
2021/11/22 01:19:51;;;;;;;15.60;8.23;;;;;;;6.19;100.00;98626.50;5062823;28;20024;-66
2021/11/22 01:22:19;;;;;;;13.85;7.55;;;;;;;6.24;100.00;98629.97;5062877;28;20048;-66
2021/11/22 01:24:44;;;;;;;14.85;7.95;;;;;;;6.11;100.00;98630.88;5062851;28;20327;-66
2021/11/22 01:27:09;;;;;;;15.00;8.10;;;;;;;6.19;100.00;98631.72;5062895;28;20032;-66
2021/11/22 01:29:35;;;;;;;15.00;7.90;;;;;;;6.17;100.00;98641.31;5062864;28;20025;-66
2021/11/22 01:32:00;;;;;;;10.52;6.40;;;;;;;6.28;100.00;98642.16;5063057;28;20021;-66
2021/11/22 01:34:28;;;;;;;16.63;7.55;;;;;;;6.27;100.00;98635.19;5062839;28;20066;-66
2021/11/22 01:36:53;;;;;;;12.70;6.82;;;;;;;6.32;100.00;98639.53;5062902;28;20024;-66
2021/11/22 01:39:19;;;;;;;16.25;7.00;;;;;;;6.39;100.00;98640.38;5063007;28;20059;-66
2021/11/22 01:41:44;;;;;;;12.43;7.03;;;;;;;6.46;100.00;98636.88;5063018;28;20092;-66
2021/11/22 01:44:09;;;;;;;15.73;6.72;;;;;;;6.38;100.00;98643.88;5063027;28;20335;-66
2021/11/22 01:46:34;;;;;;;13.45;6.65;;;;;;;6.44;100.00;98649.09;5063028;28;20029;-66
2021/11/22 01:49:03;;;;;;;12.38;7.18;;;;;;;6.36;100.00;98643.03;5063393;28;20025;-66
2021/11/22 01:51:28;;;;;;;12.35;6.80;;;;;;;6.42;100.00;98642.97;5063096;28;20013;-66
2021/11/22 01:53:53;;;;;;;12.00;6.25;;;;;;;6.43;100.00;98649.97;5061919;28;20104;-66
2021/11/22 01:56:20;;;;;;;16.05;6.88;;;;;;;6.48;100.00;98648.19;5062854;28;20035;-66
2021/11/22 01:58:46;;;;;;;11.40;6.72;;;;;;;6.49;100.00;98649.94;5062595;28;20320;-66
2021/11/22 02:01:12;;;;;;;11.18;5.95;;;;;;;6.49;100.00;98653.41;5062249;28;20024;-66
2021/11/22 02:03:37;;;;;;;9.95;5.53;;;;;;;6.47;100.00;98664.75;5062478;28;20075;-66
2021/11/22 02:06:03;;;;;;;12.55;6.43;;;;;;;6.48;100.00;98656.03;5061343;28;20033;-66
2021/11/22 02:08:28;;;;;;;16.40;6.40;;;;;;;6.49;100.00;98652.56;5062897;28;20025;-66
2021/11/22 02:10:53;;;;;;;13.48;5.07;;;;;;;6.51;100.00;98661.25;5062954;28;20048;-66
2021/11/22 02:13:19;;;;;;;15.35;5.88;;;;;;;6.51;100.00;98661.25;5063128;28;20084;-66
2021/11/22 02:15:46;;;;;;;9.98;5.13;;;;;;;6.55;100.00;98662.97;5062531;28;20044;-66
2021/11/22 02:18:11;;;;;;;17.92;5.88;;;;;;;6.56;99.51;98659.50;5062749;28;20084;-66
2021/11/22 02:20:37;;;;;;;9.82;5.28;;;;;;;6.59;99.57;98664.72;5062634;28;20028;-66
2021/11/22 02:23:07;;;;;;;15.43;5.70;;;;;;;6.54;99.76;98666.47;5062760;28;20035;-66
2021/11/22 02:25:35;;;;;;;18.10;6.35;;;;;;;6.53;99.42;98664.75;5062949;28;20025;-66
2021/11/22 02:28:02;;;;;;;10.77;5.75;;;;;;;6.63;99.51;98661.22;5065615;28;20032;-66
2021/11/22 02:30:31;;;;;;;14.45;6.05;;;;;;;6.53;99.59;98675.22;5066637;28;20362;-66
2021/11/22 02:32:58;;;;;;;20.85;6.60;;;;;;;6.61;99.18;98669.06;5061843;28;20028;-66
2021/11/22 02:35:24;;;;;;;18.42;5.55;;;;;;;6.57;98.69;98674.31;5066497;28;20028;-66
2021/11/22 02:37:50;;;;;;;14.43;5.55;;;;;;;6.60;98.77;98682.16;5066020;28;20021;-66
2021/11/22 02:40:16;;;;;;;18.17;6.20;;;;;;;6.57;98.59;98679.53;5066370;28;20017;-66
2021/11/22 02:42:42;;;;;;;15.23;5.10;;;;;;;6.57;97.99;98682.16;5066022;28;20024;-66
2021/11/22 02:45:10;;;;;;;17.58;5.78;;;;;;;6.49;99.00;98678.72;5066328;28;20017;-66
2021/11/22 02:47:35;;;;;;;17.20;5.90;;;;;;;6.49;98.96;98678.72;5065769;28;20019;-66
2021/11/22 02:50:01;;;;;;;15.18;5.47;;;;;;;6.52;98.59;98681.31;5065991;28;20092;-66
2021/11/22 02:52:26;;;;;;;13.40;4.32;;;;;;;6.58;98.94;98683.88;5065894;28;20027;-66
2021/11/22 02:54:51;;;;;;;9.98;5.05;;;;;;;6.58;98.83;98691.72;5066009;28;20021;-66
2021/11/22 02:57:17;;;;;;;11.07;4.70;;;;;;;6.52;98.46;98687.41;5065918;28;20356;-66
2021/11/22 02:59:43;;;;;;;17.35;5.43;;;;;;;6.63;98.22;98692.59;5065662;28;20040;-66
2021/11/22 03:02:14;;;;;;;16.52;5.05;;;;;;;6.52;98.59;98689.16;5065913;28;20043;-66
2021/11/22 03:04:42;;;;;;;16.65;5.82;;;;;;;6.48;98.87;98696.13;5065711;28;20029;-66
2021/11/22 03:07:08;;;;;;;16.27;5.95;;;;;;;6.49;99.58;98697.00;5065658;28;20083;-66
2021/11/22 03:09:34;;;;;;;13.18;6.70;;;;;;;6.44;99.55;98699.63;5065624;28;20032;-66
2021/11/22 03:12:03;;;;;;;19.48;5.72;;;;;;;6.48;99.42;98700.47;5058410;28;20265;-66
2021/11/22 03:14:28;;;;;;;11.32;4.57;;;;;;;6.53;99.71;98703.97;5065983;28;20247;-66
2021/11/22 03:16:54;;;;;;;13.38;5.55;;;;;;;6.64;98.65;98710.91;5065437;28;20079;-66
2021/11/22 03:19:20;;;;;;;13.75;5.55;;;;;;;6.61;98.31;98702.19;5065444;28;20328;-66
2021/11/22 03:21:46;;;;;;;10.18;4.88;;;;;;;6.63;98.98;98711.78;5065321;28;20024;-66
2021/11/22 03:24:12;;;;;;;14.45;5.43;;;;;;;6.50;99.20;98702.25;5065773;28;20233;-66
2021/11/22 03:26:37;;;;;;;12.73;4.65;;;;;;;6.51;99.20;98703.97;5065971;28;20032;-66
2021/11/22 03:29:03;;;;;;;14.52;5.35;;;;;;;6.52;98.95;98705.69;5065882;28;20024;-66
2021/11/22 03:31:29;;;;;;;14.68;5.05;;;;;;;6.52;99.26;98710.09;5065882;28;20078;-66
2021/11/22 03:33:54;;;;;;;10.15;4.85;;;;;;;6.47;99.67;98709.22;5066073;28;20074;-66
2021/11/22 03:36:20;;;;;;;8.93;5.38;;;;;;;6.57;99.14;98713.53;5065778;28;20029;-66
2021/11/22 03:38:45;;;;;;;13.57;5.00;;;;;;;6.54;99.62;98709.19;5065324;28;20032;-66
2021/11/22 03:41:13;;;;;;;12.02;5.15;;;;;;;6.51;99.54;98703.09;5065593;28;20021;-66
2021/11/22 03:46:30;;;;;;;15.05;4.72;;;;;;;6.58;99.56;98716.16;5049067;28;20105;-66
2021/11/22 03:48:55;;;;;;;18.27;5.47;;;;;;;6.61;99.52;98726.59;5064951;28;20021;-66
2021/11/22 03:51:21;;;;;;;18.75;5.25;;;;;;;6.58;99.61;98720.50;5064763;28;20056;-66
2021/11/22 03:53:46;;;;;;;17.65;5.60;;;;;;;6.50;99.89;98724.88;5065032;28;20027;-66
2021/11/22 03:56:15;;;;;;;15.43;5.57;;;;;;;6.50;100.00;98723.16;5064991;28;20017;-66
2021/11/22 03:58:40;;;;;;;17.88;5.97;;;;;;;6.54;100.00;98718.78;5064829;28;20020;-66
2021/11/22 04:01:05;;;;;;;19.20;6.90;;;;;;;6.58;99.91;98730.97;5064571;28;20044;-66
2021/11/22 04:03:31;;;;;;;15.00;6.30;;;;;;;6.54;99.91;98732.72;5064626;28;20118;-66
2021/11/22 04:05:56;;;;;;;16.45;6.50;;;;;;;6.58;99.73;98725.72;5064592;28;20070;-66
2021/11/22 04:08:22;;;;;;;16.88;6.25;;;;;;;6.65;99.79;98735.31;5064356;28;20198;-66
2021/11/22 04:10:48;;;;;;;24.33;6.70;;;;;;;6.54;99.92;98737.97;5064716;28;20076;-66
2021/11/22 04:13:13;;;;;;;17.60;8.18;;;;;;;6.52;99.62;98742.31;5064284;28;20024;-66
2021/11/22 04:15:39;;;;;;;19.42;8.30;;;;;;;6.61;99.73;98737.06;5064035;28;20041;-66
2021/11/22 04:18:05;;;;;;;33.10;8.55;;;;;;;6.51;99.69;98744.91;5064231;28;20020;-66
2021/11/22 04:20:32;;;;;;;22.65;9.40;;;;;;;6.64;99.43;98746.63;5064457;28;20059;-66
2021/11/22 04:22:58;;;;;;;21.88;7.97;;;;;;;6.74;98.97;98758.81;5064162;28;20035;-66
2021/11/22 04:25:23;;;;;;;25.02;8.95;;;;;;;6.62;99.42;98756.25;5064153;28;20044;-66
2021/11/22 04:27:49;;;;;;;20.58;9.07;;;;;;;6.65;98.83;98754.47;5064772;28;20016;-66
2021/11/22 04:30:15;;;;;;;30.17;8.65;;;;;;;6.61;98.95;98764.94;5064706;28;20052;-66
2021/11/22 04:32:41;;;;;;;28.95;10.63;;;;;;;6.57;99.27;98766.72;5064666;28;20020;-66
2021/11/22 04:35:09;;;;;;;21.10;8.25;;;;;;;6.71;98.59;98769.31;5064505;28;20060;-66
2021/11/22 04:37:35;;;;;;;20.52;8.98;;;;;;;6.73;98.40;98778.00;5063841;28;20020;-66
2021/11/22 04:40:01;;;;;;;23.00;8.48;;;;;;;6.65;98.25;98774.56;5062883;28;20036;-66
2021/11/22 04:42:26;;;;;;;26.02;8.85;;;;;;;6.64;98.09;98772.78;5062631;28;20221;-66
2021/11/22 04:44:53;;;;;;;27.02;9.02;;;;;;;6.57;98.34;98776.28;5064984;28;20032;-66
2021/11/22 04:47:20;;;;;;;21.80;8.85;;;;;;;6.58;98.30;98773.69;5063027;28;20017;-66
2021/11/22 04:49:47;;;;;;;25.65;8.75;;;;;;;6.67;98.25;98783.25;5062742;28;20336;-66
2021/11/22 04:52:13;;;;;;;21.10;8.57;;;;;;;6.70;97.47;98791.09;5063349;28;20016;-66
2021/11/22 04:54:39;;;;;;;27.08;9.02;;;;;;;6.68;97.49;98791.09;5062261;28;20029;-66
2021/11/22 04:57:05;;;;;;;20.92;8.07;;;;;;;6.70;97.53;98793.72;5054656;28;20033;-66
2021/11/22 04:59:32;;;;;;;18.73;8.23;;;;;;;6.72;97.37;98801.56;5057032;28;20054;-66
2021/11/22 05:01:57;;;;;;;30.50;8.85;;;;;;;6.72;97.17;98799.81;5063314;28;20313;-66
2021/11/22 05:04:23;;;;;;;19.25;8.32;;;;;;;6.72;97.26;98800.66;5061675;28;20051;-66
2021/11/22 05:06:48;;;;;;;25.80;8.18;;;;;;;6.71;96.90;98811.16;5063672;28;20025;-66
2021/11/22 05:09:15;;;;;;;20.58;8.45;;;;;;;6.66;97.31;98807.66;5064074;28;20063;-66
2021/11/22 05:11:42;;;;;;;24.55;7.93;;;;;;;6.76;96.33;98804.16;5064310;28;20358;-66
2021/11/22 05:14:09;;;;;;;23.60;8.02;;;;;;;6.65;96.80;98808.56;5063978;28;20087;-66
2021/11/22 05:16:35;;;;;;;24.30;7.30;;;;;;;6.68;96.75;98808.56;5063848;28;20294;-66
2021/11/22 05:19:00;;;;;;;21.15;7.93;;;;;;;6.70;97.01;98809.41;5063964;28;20032;-66
2021/11/22 05:21:25;;;;;;;18.52;6.93;;;;;;;6.76;96.12;98809.41;5063914;28;20033;-66
2021/11/22 05:23:54;;;;;;;19.80;7.50;;;;;;;6.62;96.75;98805.94;5064167;28;20031;-66
2021/11/22 05:26:19;;;;;;;25.75;7.82;;;;;;;6.51;96.97;98818.13;5064144;28;20321;-66
2021/11/22 05:28:44;;;;;;;23.20;7.93;;;;;;;6.53;96.64;98822.50;5063855;28;20025;-66
2021/11/22 05:31:09;;;;;;;26.58;9.15;;;;;;;6.48;96.89;98836.44;5063817;28;20028;-66
2021/11/22 05:33:35;;;;;;;18.45;7.57;;;;;;;6.60;96.87;98823.38;5063791;28;20093;-66
2021/11/22 05:36:00;;;;;;;20.50;7.65;;;;;;;6.60;96.30;98828.59;5064055;28;20029;-66
2021/11/22 05:38:26;;;;;;;19.75;6.90;;;;;;;6.56;96.39;98826.88;5063829;28;20025;-66
2021/11/22 05:40:51;;;;;;;18.02;7.13;;;;;;;6.57;96.18;98828.59;5063662;28;20028;-66
2021/11/22 05:43:16;;;;;;;14.75;6.90;;;;;;;6.61;96.28;98836.44;5063737;28;20036;-66
2021/11/22 05:45:41;;;;;;;27.50;7.43;;;;;;;6.59;95.80;98839.94;5063675;28;20028;-66
2021/11/22 05:48:07;;;;;;;21.10;6.88;;;;;;;6.59;95.87;98846.00;5063649;28;20025;-66
2021/11/22 05:50:34;;;;;;;16.52;6.10;;;;;;;6.65;95.75;98842.56;5063594;28;20032;-66
2021/11/22 05:53:01;;;;;;;21.00;7.18;;;;;;;6.56;96.02;98837.31;5063624;28;20325;-66
2021/11/22 05:55:34;;;;;;;28.45;6.47;;;;;;;6.63;95.41;98849.50;5063606;28;20035;-66
2021/11/22 05:58:05;;;;;;;16.95;6.25;;;;;;;6.58;95.73;98864.31;5063894;28;20309;-66
2021/11/22 06:00:31;;;;;;;17.25;6.03;;;;;;;6.58;96.28;98859.97;5064562;28;20032;-66
2021/11/22 06:02:56;;;;;;;18.55;6.70;;;;;;;6.56;95.58;98874.78;5067474;28;20047;-66
2021/11/22 06:05:22;;;;;;;16.70;6.05;;;;;;;6.57;95.68;98870.44;5065912;28;20029;-66
2021/11/22 06:07:47;;;;;;;23.88;6.47;;;;;;;6.60;95.33;98870.44;5067228;28;20025;-66
2021/11/22 06:10:13;;;;;;;22.92;6.30;;;;;;;6.64;94.53;98873.06;5067426;28;20040;-66
2021/11/22 06:12:38;;;;;;;13.00;5.47;;;;;;;6.47;95.95;98873.91;5067624;28;20024;-66
2021/11/22 06:15:04;;;;;;;18.98;6.95;;;;;;;6.46;96.16;98873.03;5067158;28;20214;-66
2021/11/22 06:17:29;;;;;;;30.38;6.38;;;;;;;6.43;95.71;98874.78;5067249;28;20029;-66
2021/11/22 06:19:55;;;;;;;23.38;6.40;;;;;;;6.36;96.22;98876.53;5067128;28;20379;-66
2021/11/22 06:22:20;;;;;;;18.10;6.03;;;;;;;6.46;95.75;98877.41;5067198;28;20092;-67
2021/11/22 06:24:45;;;;;;;17.90;6.57;;;;;;;6.44;96.17;98887.88;5067135;28;20341;-66
2021/11/22 06:27:11;;;;;;;20.02;5.78;;;;;;;6.41;96.08;98905.28;5067132;28;20025;-66
2021/11/22 06:29:38;;;;;;;21.50;6.20;;;;;;;6.38;95.94;98889.59;5067015;28;20029;-66
2021/11/22 06:32:10;;;;;;;16.05;6.18;;;;;;;6.44;95.94;98905.28;5066965;28;20048;-67
2021/11/22 06:34:35;;;;;;;17.67;6.10;;;;;;;6.46;95.72;98904.41;5067222;28;20025;-66
2021/11/22 06:37:01;;;;;;;24.52;5.65;;;;;;;6.42;95.80;98913.13;5066965;28;20216;-66
2021/11/22 06:39:26;;;;;;;20.40;5.78;;;;;;;6.49;95.47;98914.03;5066936;28;20021;-67
2021/11/22 06:41:51;;;;;;;19.45;6.00;;;;;;;6.53;95.29;98918.38;5066746;28;20331;-66
2021/11/22 06:44:19;;;;;;;20.02;4.97;;;;;;;6.42;95.37;98927.94;5066757;28;20024;-66
2021/11/22 06:46:48;;;;;;;25.70;6.03;;;;;;;6.38;95.12;98926.19;5066976;28;20300;-66
2021/11/22 06:49:13;;;;;;;21.90;5.13;;;;;;;6.53;95.54;98936.69;5066915;28;20058;-66
2021/11/22 06:51:38;;;;;;;21.92;6.05;;;;;;;6.49;95.39;98940.16;5066639;28;20092;-66
2021/11/22 06:54:04;;;;;;;13.10;4.78;;;;;;;6.42;95.74;98941.00;5066579;28;20021;-66
2021/11/22 06:56:29;;;;;;;20.20;4.75;;;;;;;6.37;95.57;98937.53;5066543;28;20028;-66
2021/11/22 06:58:54;;;;;;;21.35;6.50;;;;;;;6.33;95.56;98943.63;5066522;28;20020;-66
2021/11/22 07:01:20;;;;;;;13.27;5.65;;;;;;;6.40;95.64;98948.00;5066377;28;20035;-66
2021/11/22 07:03:45;;;;;;;15.82;4.90;;;;;;;6.52;95.08;98955.88;5066608;28;20308;-66
2021/11/22 07:06:10;;;;;;;16.80;5.50;;;;;;;6.44;94.98;98963.69;5066682;28;20091;-66
2021/11/22 07:08:36;;;;;;;21.17;5.45;;;;;;;6.42;94.92;98962.81;5066289;28;20283;-66
2021/11/22 07:11:02;;;;;;;16.23;4.70;;;;;;;6.47;94.32;98970.66;5066354;28;20088;-66
2021/11/22 07:13:27;;;;;;;14.05;5.55;;;;;;;6.47;94.17;98978.50;5065418;28;20021;-66
2021/11/22 07:15:53;;;;;;;21.08;4.65;;;;;;;6.41;94.57;98978.50;5066020;28;20045;-66
2021/11/22 07:18:18;;;;;;;23.00;4.80;;;;;;;6.50;94.61;98994.19;5066376;28;20016;-66
2021/11/22 07:20:46;;;;;;;23.10;5.25;;;;;;;6.46;94.26;98982.00;5066003;28;20028;-66
2021/11/22 07:23:14;;;;;;;18.83;4.57;;;;;;;6.46;94.44;98987.22;5062943;28;20025;-66
2021/11/22 07:25:39;;;;;;;20.23;5.25;;;;;;;6.41;94.47;98987.22;5065963;28;20025;-66
2021/11/22 07:28:05;;;;;;;20.05;5.57;;;;;;;6.38;95.13;98995.03;5066004;28;20096;-66
2021/11/22 07:30:30;;;;;;;17.27;4.35;;;;;;;6.44;94.51;98999.41;5065929;28;20051;-66
2021/11/22 07:32:55;;;;;;;11.65;4.38;;;;;;;6.40;94.20;99010.75;5065875;28;20020;-66
2021/11/22 07:35:22;;;;;;;20.50;4.57;;;;;;;6.44;93.86;99010.75;5065836;28;20048;-66
2021/11/22 07:37:49;;;;;;;18.25;4.20;;;;;;;6.33;94.36;99019.44;5065776;28;20376;-66
2021/11/22 07:40:16;;;;;;;17.77;4.05;;;;;;;6.43;93.73;99023.81;5065887;28;20017;-66
2021/11/22 07:42:41;;;;;;;13.60;4.93;;;;;;;6.42;93.16;99012.47;5070968;28;20355;-66
2021/11/22 07:45:07;;;;;;;14.63;4.30;;;;;;;6.43;93.00;99023.81;5068104;28;20017;-66
2021/11/22 07:47:32;;;;;;;14.02;3.88;;;;;;;6.46;92.88;99023.84;5065562;28;20031;-66
2021/11/22 07:49:58;;;;;;;13.07;4.40;;;;;;;6.41;93.47;99030.78;5065537;28;20021;-66
2021/11/22 07:52:23;;;;;;;10.82;4.35;;;;;;;6.45;93.19;99032.53;5065486;28;20029;-66
2021/11/22 07:54:49;;;;;;;15.68;4.63;;;;;;;6.50;93.07;99031.69;5065469;28;20216;-66
2021/11/22 07:57:16;;;;;;;10.77;3.85;;;;;;;6.50;92.62;99030.81;5065645;28;20016;-66
2021/11/22 07:59:41;;;;;;;16.38;4.88;;;;;;;6.54;92.53;99033.44;5065508;28;20216;-66
2021/11/22 08:02:07;;;;;;;9.60;4.68;;;;;;;6.46;93.32;99034.28;5056630;28;20021;-66
2021/11/22 08:04:33;;;;;;;14.93;5.35;;;;;;;6.50;93.20;99036.03;5055818;28;20092;-66
2021/11/22 08:07:01;;;;;;;20.13;4.85;;;;;;;6.52;93.08;99055.22;5055019;28;20017;-66
2021/11/22 08:09:35;;;;;;;17.20;4.88;;;;;;;6.55;92.46;99049.97;5056271;28;20197;-66
2021/11/22 08:14:36;;;;;;;16.98;4.70;;;;;;;6.38;92.43;99051.69;5054844;28;20029;-66
2021/11/22 08:17:04;;;;;;;21.58;4.97;;;;;;;6.40;92.59;99055.19;5073750;28;20032;-66
2021/11/22 08:19:29;;;;;;;13.48;3.88;;;;;;;6.54;92.03;99053.47;5084990;28;20354;-66
2021/11/22 08:21:54;;;;;;;16.73;4.10;;;;;;;6.50;91.98;99056.97;5065378;28;20048;-66
2021/11/22 08:24:19;;;;;;;9.90;3.60;;;;;;;6.52;91.79;99070.94;5064870;28;20024;-66
2021/11/22 08:26:45;;;;;;;15.02;3.70;;;;;;;6.54;91.43;99071.78;5065049;28;20088;-66
2021/11/22 08:29:10;;;;;;;15.05;5.25;;;;;;;6.42;92.35;99084.81;5065027;28;20017;-66
2021/11/22 08:31:36;;;;;;;19.60;5.07;;;;;;;6.43;91.56;99081.34;5064723;28;20213;-66
2021/11/22 08:34:01;;;;;;;15.75;3.80;;;;;;;6.30;92.18;99084.78;5064736;28;20040;-66
2021/11/22 08:36:26;;;;;;;12.70;3.80;;;;;;;6.33;91.98;99090.03;5064538;28;20066;-66
2021/11/22 08:38:52;;;;;;;8.68;3.72;;;;;;;6.32;91.03;99088.25;5058832;28;20303;-66
2021/11/22 08:41:19;;;;;;;11.30;3.75;;;;;;;6.29;91.68;99083.00;5057426;28;20021;-66
2021/11/22 08:43:44;;;;;;;25.02;5.38;;;;;;;6.24;92.18;99087.34;5044527;28;20025;-66
2021/11/22 08:46:10;;;;;;;18.23;4.03;;;;;;;6.40;91.45;99097.00;5044782;28;20060;-66
2021/11/22 08:48:35;;;;;;;10.10;3.47;;;;;;;6.35;91.25;99098.72;5044452;28;20098;-66
2021/11/22 08:51:03;;;;;;;18.05;4.53;;;;;;;6.39;90.70;99101.34;5044744;28;20021;-66
2021/11/22 08:53:28;;;;;;;19.77;4.05;;;;;;;6.32;91.46;99098.72;5044480;28;20021;-66
2021/11/22 08:55:54;;;;;;;15.70;4.18;;;;;;;6.35;90.94;99109.19;5044387;28;20027;-66
2021/11/22 08:58:20;;;;;;;11.63;4.28;;;;;;;6.31;91.21;99117.88;5044610;28;20029;-66
2021/11/22 09:00:45;;;;;;;15.35;4.40;;;;;;;6.36;90.76;99105.72;5048236;28;20370;-66
2021/11/22 09:03:11;;;;;;;12.20;3.72;;;;;;;6.39;90.90;99117.03;5061070;28;20021;-66
2021/11/22 09:05:38;;;;;;;15.18;4.20;;;;;;;6.28;91.38;99125.72;5053839;28;20021;-66
2021/11/22 09:08:04;;;;;;;13.98;3.60;;;;;;;6.31;91.64;99138.78;5054716;28;20032;-66
2021/11/22 09:10:29;;;;;;;10.23;3.67;;;;;;;6.36;91.35;99137.09;5058280;28;20043;-66
2021/11/22 09:12:55;;;;;;;17.33;4.50;;;;;;;6.26;90.44;99140.50;5064055;28;20340;-66
2021/11/22 09:15:21;;;;;;;15.27;4.47;;;;;;;6.35;90.40;99151.00;5063861;28;20071;-66
2021/11/22 09:17:46;;;;;;;17.17;4.28;;;;;;;6.38;90.42;99156.25;5063939;28;20066;-66
2021/11/22 09:20:12;;;;;;;13.25;4.25;;;;;;;6.37;90.39;99157.13;5063897;28;20049;-66
2021/11/22 09:22:39;;;;;;;9.50;3.47;;;;;;;6.39;90.60;99158.88;5063931;28;20063;-66
2021/11/22 09:25:06;;;;;;;10.07;3.35;;;;;;;6.33;91.06;99157.97;5063901;28;20025;-66
2021/11/22 09:27:31;;;;;;;12.60;3.47;;;;;;;6.34;90.65;99170.19;5064128;28;20029;-66
2021/11/22 09:29:56;;;;;;;10.52;3.28;;;;;;;6.36;90.47;99173.69;5063835;28;20085;-66
2021/11/22 09:32:22;;;;;;;15.20;3.65;;;;;;;6.43;89.94;99175.47;5063827;28;20278;-66
2021/11/22 09:34:49;;;;;;;11.30;3.50;;;;;;;6.37;89.43;99180.66;5063892;28;20044;-66
2021/11/22 09:37:14;;;;;;;10.27;3.20;;;;;;;6.40;90.81;99181.53;5063804;28;20025;-66
2021/11/22 09:39:39;;;;;;;12.30;4.50;;;;;;;6.29;89.70;99179.72;5063677;28;20031;-66
2021/11/22 09:42:05;;;;;;;14.57;3.97;;;;;;;6.39;89.65;99195.47;5063750;28;20251;-66
2021/11/22 09:44:30;;;;;;;12.77;3.42;;;;;;;6.28;90.08;99191.06;5064021;28;20087;-66
2021/11/22 09:46:55;;;;;;;17.15;4.07;;;;;;;6.33;90.07;99189.34;5063689;28;20024;-66
2021/11/22 09:49:22;;;;;;;15.40;3.40;;;;;;;6.51;88.64;99189.44;5062966;28;20032;-66
2021/11/22 09:51:48;;;;;;;11.95;3.60;;;;;;;6.46;88.20;99196.41;5055350;28;20021;-66
2021/11/22 09:54:14;;;;;;;14.38;3.53;;;;;;;6.60;87.86;99193.00;5060770;28;20028;-66
2021/11/22 09:56:40;;;;;;;14.38;3.78;;;;;;;6.39;88.94;99194.59;5063636;28;20056;-65
2021/11/22 09:59:06;;;;;;;14.02;3.70;;;;;;;6.44;89.08;99193.78;5063323;28;20115;-65
2021/11/22 10:01:35;;;;;;;14.23;3.85;;;;;;;6.45;88.58;99199.88;5062464;28;20033;-65
2021/11/22 10:04:11;;;;;;;20.52;4.25;;;;;;;6.41;88.88;99192.88;5063500;28;20047;-66
2021/11/22 10:06:58;;;;;;;9.30;3.65;;;;;;;6.43;88.78;99199.84;5063506;28;20140;-66
2021/11/22 10:09:36;;;;;;;12.85;3.97;;;;;;;6.47;88.09;99203.38;5063728;28;20025;-65
2021/11/22 10:12:18;;;;;;;7.85;3.78;;;;;;;6.55;88.52;99199.03;5063698;28;20043;-65
2021/11/22 10:14:49;;;;;;;15.70;3.92;;;;;;;6.53;88.16;99224.34;5063569;28;20048;-65
2021/11/22 10:17:23;;;;;;;19.27;3.78;;;;;;;6.63;87.29;99211.31;5058941;28;20035;-65
2021/11/22 10:20:16;;;;;;;13.25;3.97;;;;;;;6.79;86.48;99209.66;5051321;28;20022;-65
2021/11/22 10:22:52;;;;;;;5.45;3.63;;;;;;;6.77;85.85;99200.91;5042494;28;20033;-65
2021/11/22 10:25:32;;;;;;;14.38;3.45;;;;;;;6.79;86.35;99212.25;5043691;28;20029;-65
2021/11/22 10:28:10;;;;;;;14.68;3.28;;;;;;;6.87;85.21;99213.19;5043668;28;20025;-65
2021/11/22 10:30:39;;;;;;;10.38;3.95;;;;;;;6.79;86.15;99233.19;5043650;28;20029;-65
2021/11/22 10:33:07;;;;;;;9.63;3.80;;;;;;;7.07;85.77;99214.13;5043587;28;20269;-65
2021/11/22 10:35:34;;;;;;;9.50;3.40;;;;;;;7.02;85.33;99226.31;5062820;28;20024;-65
2021/11/22 10:38:02;;;;;;;14.00;3.92;;;;;;;7.04;84.54;99211.50;5063251;28;20214;-65
2021/11/22 10:40:30;;;;;;;8.77;3.10;;;;;;;7.09;84.94;99220.22;5063113;28;20032;-65
2021/11/22 10:42:56;;;;;;;10.25;3.22;;;;;;;7.15;84.83;99235.09;5063219;28;20029;-65
2021/11/22 10:45:33;;;;;;;10.52;3.58;;;;;;;7.16;83.59;99229.00;5063207;28;20070;-65
2021/11/22 10:48:21;;;;;;;9.70;3.60;;;;;;;7.15;83.95;99220.25;5064810;28;20021;-65
2021/11/22 10:50:51;;;;;;;7.40;3.35;;;;;;;7.39;83.17;99222.06;5066963;28;20025;-66
2021/11/22 10:53:32;;;;;;;14.68;3.72;;;;;;;7.48;82.93;99233.47;5066874;28;20066;-66
2021/11/22 10:55:59;;;;;;;9.60;2.85;;;;;;;7.56;80.60;99231.72;5066648;28;20100;-66
2021/11/22 10:58:47;;;;;;;6.15;2.67;;;;;;;7.33;82.49;99230.78;5066545;28;20067;-66
2021/11/22 11:01:17;;;;;;;13.45;3.85;;;;;;;7.35;82.81;99226.44;5065456;28;20025;-66
2021/11/22 11:03:51;;;;;;;10.68;3.42;;;;;;;7.42;82.34;99227.31;5056330;28;20028;-66
2021/11/22 11:06:17;;;;;;;6.38;3.03;;;;;;;7.48;82.29;99228.22;5057325;28;20025;-66
2021/11/22 11:08:42;;;;;;;13.40;3.25;;;;;;;7.44;81.72;99225.59;5056942;28;20359;-66
2021/11/22 11:11:10;;;;;;;7.57;3.33;;;;;;;7.45;82.14;99230.84;5056096;28;20017;-66
2021/11/22 11:13:46;;;;;;;7.85;3.17;;;;;;;7.70;80.84;99230.00;5055076;28;20021;-66
2021/11/22 11:16:13;;;;;;;7.20;2.90;;;;;;;7.63;80.27;99241.31;5058896;28;20040;-66
2021/11/22 11:18:38;;;;;;;11.07;3.20;;;;;;;7.75;80.88;99243.97;5062927;28;20016;-65
2021/11/22 11:21:04;;;;;;;11.63;3.08;;;;;;;7.52;79.83;99256.16;5054929;28;20040;-66
2021/11/22 11:23:29;;;;;;;6.55;3.10;;;;;;;7.87;79.50;99248.34;5054820;28;20277;-66
2021/11/22 11:25:54;;;;;;;8.18;3.25;;;;;;;7.85;79.76;99245.72;5063128;28;20096;-66
2021/11/22 11:28:19;;;;;;;9.82;3.60;;;;;;;7.77;78.70;99257.97;5065979;28;20043;-66
2021/11/22 11:30:45;;;;;;;11.35;3.53;;;;;;;7.77;79.92;99255.34;5065975;28;20123;-66
2021/11/22 11:33:13;;;;;;;11.65;3.05;;;;;;;7.76;79.17;99257.97;5065917;28;20021;-66
2021/11/22 11:35:41;;;;;;;7.82;3.17;;;;;;;7.98;79.29;99257.13;5065864;28;20070;-66